createdAt,value
2022-09-14T00:00:12.582Z,91.48
2022-09-14T00:02:40.313Z,91.17
2022-09-14T00:05:08.488Z,94.94
2022-09-14T00:07:36.297Z,94.31
2022-09-14T00:10:03.844Z,96.03
2022-09-14T00:12:31.464Z,94.34
2022-09-14T00:14:59.026Z,95.60
2022-09-14T00:17:28.009Z,95.38
2022-09-14T00:19:55.614Z,94.10
2022-09-14T00:22:23.203Z,93.27
2022-09-14T00:24:51.001Z,93.60
2022-09-14T00:27:18.562Z,96.51
2022-09-14T00:29:48.482Z,95.16
2022-09-14T00:32:16.131Z,92.08
2022-09-14T00:34:45.068Z,94.53
2022-09-14T00:37:12.862Z,94.84
2022-09-14T00:39:47.614Z,94.21
2022-09-14T00:42:19.335Z,96.57
2022-09-14T00:45:08.464Z,96.60
2022-09-14T00:47:36.495Z,93.53
2022-09-14T00:50:06.860Z,96.78
2022-09-14T00:52:36.483Z,96.71
2022-09-14T00:55:08.532Z,95.67
2022-09-14T00:57:38.918Z,95.47
2022-09-14T01:00:09.282Z,92.53
2022-09-14T01:02:36.953Z,95.58
2022-09-14T01:05:07.153Z,97.17
2022-09-14T01:07:59.468Z,95.54
2022-09-14T01:10:35.661Z,97.24
2022-09-14T01:13:09.960Z,94.92
2022-09-14T01:15:46.170Z,95.64
2022-09-14T01:18:17.661Z,97.20
2022-09-14T01:20:49.591Z,95.94
2022-09-14T01:23:20.591Z,93.72
2022-09-14T01:26:02.655Z,95.67
2022-09-14T01:28:35.812Z,95.44
2022-09-14T01:31:06.767Z,94.47
2022-09-14T01:33:37.532Z,96.24
2022-09-14T01:36:07.972Z,98.53
2022-09-14T01:38:39.134Z,94.77
2022-09-14T01:41:10.499Z,95.32
2022-09-14T01:43:41.399Z,96.23
2022-09-14T01:46:12.148Z,95.67
2022-09-14T01:48:44.570Z,95.49
2022-09-14T01:51:15.571Z,95.85
2022-09-14T01:53:46.178Z,94.36
2022-09-14T01:56:17.253Z,94.76
2022-09-14T01:58:49.226Z,93.79
2022-09-14T02:01:21.350Z,93.01
2022-09-14T02:03:51.662Z,93.62
2022-09-14T02:06:22.949Z,93.89
2022-09-14T02:08:51.163Z,94.81
2022-09-14T02:11:18.710Z,95.71
2022-09-14T02:13:48.022Z,95.46
2022-09-14T02:16:15.794Z,93.98
2022-09-14T02:18:44.330Z,94.13
2022-09-14T02:21:15.210Z,93.54
2022-09-14T02:23:43.122Z,92.86
2022-09-14T02:26:11.206Z,94.25
2022-09-14T02:28:38.809Z,93.49
2022-09-14T02:31:14.424Z,95.35
2022-09-14T02:33:53.813Z,94.47
2022-09-14T02:36:26.748Z,95.80
2022-09-14T02:39:00.367Z,94.03
2022-09-14T02:41:37.244Z,95.07
2022-09-14T02:44:11.474Z,95.76
2022-09-14T02:46:46.283Z,95.12
2022-09-14T02:49:19.907Z,96.40
2022-09-14T02:51:52.497Z,96.80
2022-09-14T02:54:22.435Z,98.46
2022-09-14T02:56:50.256Z,95.32
2022-09-14T02:59:18.615Z,94.60
2022-09-14T03:01:47.631Z,95.20
2022-09-14T03:04:15.410Z,94.23
2022-09-14T03:06:42.967Z,94.29
2022-09-14T03:09:10.547Z,94.09
2022-09-14T03:11:38.098Z,95.56
2022-09-14T03:14:05.647Z,96.75
2022-09-14T03:16:33.454Z,95.50
2022-09-14T03:19:02.391Z,98.31
2022-09-14T03:21:29.919Z,95.52
2022-09-14T03:23:57.901Z,95.20
2022-09-14T03:26:27.296Z,96.70
2022-09-14T03:28:56.880Z,97.13
2022-09-14T03:31:25.138Z,97.45
2022-09-14T03:33:55.190Z,97.85
2022-09-14T03:36:24.929Z,98.25
2022-09-14T03:38:54.908Z,99.22
2022-09-14T03:41:23.692Z,98.25
2022-09-14T03:43:51.329Z,98.95
2022-09-14T03:46:24.185Z,98.23
2022-09-14T03:48:52.482Z,97.01
2022-09-14T03:51:20.150Z,96.99
2022-09-14T03:53:49.137Z,97.42
2022-09-14T03:56:19.315Z,98.62
2022-09-14T03:58:48.044Z,99.02
2022-09-14T04:01:17.975Z,97.78
2022-09-14T04:03:45.787Z,97.46
2022-09-14T04:06:14.133Z,98.13
2022-09-14T04:08:42.805Z,98.81
2022-09-14T04:11:14.167Z,98.04
2022-09-14T04:13:41.957Z,99.21
2022-09-14T04:16:09.631Z,97.52
2022-09-14T04:18:37.436Z,96.95
2022-09-14T04:21:08.410Z,97.70
2022-09-14T04:23:51.277Z,98.66
2022-09-14T04:26:27.226Z,96.31
2022-09-14T04:28:55.012Z,98.26
2022-09-14T04:31:22.708Z,98.19
2022-09-14T04:33:51.207Z,98.51
2022-09-14T04:36:20.215Z,98.59
2022-09-14T04:38:48.012Z,98.27
2022-09-14T04:41:18.031Z,98.68
2022-09-14T04:43:47.774Z,99.14
2022-09-14T04:46:17.346Z,99.30
2022-09-14T04:48:45.294Z,99.65
2022-09-14T04:51:16.583Z,100.00
2022-09-14T04:53:44.794Z,100.00
2022-09-14T04:56:13.790Z,100.00
2022-09-14T04:58:48.249Z,100.00
2022-09-14T05:01:21.602Z,100.00
2022-09-14T05:03:51.666Z,100.00
2022-09-14T05:06:21.030Z,100.00
2022-09-14T05:08:49.196Z,99.76
2022-09-14T05:11:17.962Z,99.73
2022-09-14T05:13:49.688Z,99.46
2022-09-14T05:16:21.198Z,98.60
2022-09-14T05:18:49.817Z,98.91
2022-09-14T05:21:19.347Z,97.87
2022-09-14T05:23:47.547Z,98.09
2022-09-14T05:26:15.327Z,96.48
2022-09-14T05:28:42.931Z,96.88
2022-09-14T05:31:14.075Z,97.64
2022-09-14T05:33:43.075Z,96.48
2022-09-14T05:36:11.541Z,97.92
2022-09-14T05:38:40.020Z,98.63
2022-09-14T05:41:08.931Z,99.04
2022-09-14T05:43:36.686Z,97.57
2022-09-14T05:46:05.656Z,97.50
2022-09-14T05:48:33.774Z,98.39
2022-09-14T05:51:04.950Z,97.60
2022-09-14T05:53:32.600Z,98.15
2022-09-14T05:56:01.104Z,97.27
2022-09-14T05:58:28.712Z,97.26
2022-09-14T06:00:56.422Z,97.01
2022-09-14T06:03:24.263Z,95.10
2022-09-14T06:05:54.715Z,95.30
2022-09-14T06:08:24.684Z,95.01
2022-09-14T06:10:52.346Z,98.68
2022-09-14T06:13:20.005Z,97.07
2022-09-14T06:15:47.515Z,97.77
2022-09-14T06:18:15.096Z,100.00
2022-09-14T06:20:50.864Z,100.00
2022-09-14T06:23:18.583Z,100.00
2022-09-14T06:25:47.472Z,100.00
2022-09-14T06:28:15.068Z,100.00
2022-09-14T06:30:44.583Z,100.00
2022-09-14T06:33:12.145Z,100.00
2022-09-14T06:35:40.977Z,100.00
2022-09-14T06:38:08.689Z,100.00
2022-09-14T06:40:36.543Z,97.65
2022-09-14T06:43:05.528Z,96.06
2022-09-14T06:45:33.432Z,95.69
2022-09-14T06:48:01.219Z,98.33
2022-09-14T06:50:28.784Z,100.00
2022-09-14T06:52:57.021Z,100.00
2022-09-14T06:55:24.612Z,99.07
2022-09-14T06:57:52.187Z,99.19
2022-09-14T07:00:21.246Z,100.00
2022-09-14T07:02:51.369Z,100.00
2022-09-14T07:05:22.932Z,100.00
2022-09-14T07:07:52.331Z,100.00
2022-09-14T07:10:20.104Z,100.00
2022-09-14T07:12:48.123Z,100.00
2022-09-14T07:15:15.944Z,100.00
2022-09-14T07:17:47.086Z,100.00
2022-09-14T07:20:15.403Z,100.00
2022-09-14T07:22:43.640Z,100.00
2022-09-14T07:25:11.743Z,100.00
2022-09-14T07:27:39.593Z,100.00
2022-09-14T07:30:08.686Z,100.00
2022-09-14T07:32:36.231Z,100.00
2022-09-14T07:35:06.203Z,100.00
2022-09-14T07:37:33.850Z,100.00
2022-09-14T07:40:01.616Z,100.00
2022-09-14T07:42:29.172Z,100.00
2022-09-14T07:44:56.812Z,100.00
2022-09-14T07:47:24.363Z,100.00
2022-09-14T07:49:51.904Z,100.00
2022-09-14T07:52:21.060Z,100.00
2022-09-14T07:54:48.692Z,100.00
2022-09-14T07:57:17.020Z,100.00
2022-09-14T07:59:44.644Z,100.00
2022-09-14T08:02:12.525Z,100.00
2022-09-14T08:04:40.278Z,100.00
2022-09-14T08:07:09.007Z,100.00
2022-09-14T08:09:38.909Z,100.00
2022-09-14T08:12:06.575Z,100.00
2022-09-14T08:14:34.335Z,100.00
2022-09-14T08:17:02.181Z,100.00
2022-09-14T08:19:30.109Z,100.00
2022-09-14T08:21:57.823Z,100.00
2022-09-14T08:24:25.381Z,100.00
2022-09-14T08:26:54.877Z,100.00
2022-09-14T08:29:22.628Z,99.27
2022-09-14T08:31:52.082Z,100.00
2022-09-14T08:34:20.452Z,100.00
2022-09-14T08:36:48.780Z,100.00
2022-09-14T08:39:17.131Z,100.00
2022-09-14T08:41:51.638Z,100.00
2022-09-14T08:44:23.341Z,100.00
2022-09-14T08:46:54.345Z,100.00
2022-09-14T08:49:24.910Z,100.00
2022-09-14T08:51:52.632Z,100.00
2022-09-14T08:54:20.233Z,100.00
2022-09-14T08:56:51.222Z,100.00
2022-09-14T08:59:36.314Z,100.00
2022-09-14T09:02:18.145Z,100.00
2022-09-14T09:04:53.664Z,100.00
2022-09-14T09:07:28.106Z,100.00
2022-09-14T09:09:58.114Z,100.00
2022-09-14T09:12:31.510Z,100.00
2022-09-14T09:15:02.096Z,100.00
2022-09-14T09:17:32.473Z,100.00
2022-09-14T09:20:06.806Z,100.00
2022-09-14T09:22:39.756Z,100.00
2022-09-14T09:25:08.836Z,100.00
2022-09-14T09:27:36.423Z,100.00
2022-09-14T09:30:06.442Z,100.00
2022-09-14T09:32:35.685Z,100.00
2022-09-14T09:35:06.357Z,100.00
2022-09-14T09:37:39.468Z,100.00
2022-09-14T09:40:15.682Z,100.00
2022-09-14T09:43:07.934Z,100.00
2022-09-14T09:45:49.786Z,100.00
2022-09-14T09:48:18.836Z,100.00
2022-09-14T09:50:52.102Z,100.00
2022-09-14T09:53:22.292Z,100.00
2022-09-14T09:55:50.750Z,100.00
2022-09-14T09:58:28.452Z,100.00
2022-09-14T10:00:59.079Z,100.00
2022-09-14T10:03:34.022Z,100.00
2022-09-14T10:06:04.104Z,100.00
2022-09-14T10:08:35.023Z,100.00
2022-09-14T10:11:04.287Z,100.00
2022-09-14T10:13:37.704Z,100.00
2022-09-14T10:16:09.416Z,100.00
2022-09-14T10:18:37.135Z,100.00
2022-09-14T10:21:09.621Z,100.00
2022-09-14T10:23:38.726Z,100.00
2022-09-14T10:26:35.004Z,100.00
2022-09-14T10:29:28.885Z,100.00
2022-09-14T10:32:02.345Z,98.54
2022-09-14T10:34:30.443Z,99.37
2022-09-14T10:37:07.447Z,100.00
2022-09-14T10:39:40.712Z,99.52
2022-09-14T10:42:16.655Z,100.00
2022-09-14T10:44:57.499Z,99.20
2022-09-14T10:47:52.360Z,100.00
2022-09-14T10:50:28.546Z,100.00
2022-09-14T10:53:05.501Z,99.81
2022-09-14T10:55:39.963Z,100.00
2022-09-14T10:58:23.882Z,100.00
2022-09-14T11:01:00.265Z,100.00
2022-09-14T11:03:45.222Z,100.00
2022-09-14T11:06:24.871Z,99.85
2022-09-14T11:08:57.330Z,99.04
2022-09-14T11:11:33.948Z,100.00
2022-09-14T11:14:12.472Z,100.00
2022-09-14T11:16:52.693Z,99.39
2022-09-14T11:19:30.811Z,97.63
2022-09-14T11:22:03.707Z,99.38
2022-09-14T11:24:36.212Z,100.00
2022-09-14T11:27:06.537Z,100.00
2022-09-14T11:29:37.177Z,100.00
2022-09-14T11:32:20.837Z,99.37
2022-09-14T11:34:56.102Z,99.35
2022-09-14T11:37:31.516Z,98.79
2022-09-14T11:40:08.178Z,98.17
2022-09-14T11:42:38.883Z,98.10
2022-09-14T11:45:08.596Z,99.82
2022-09-14T11:47:47.148Z,99.64
2022-09-14T11:50:20.836Z,100.00
2022-09-14T11:52:50.142Z,98.61
2022-09-14T11:55:19.162Z,99.61
2022-09-14T11:57:47.951Z,98.60
2022-09-14T12:00:47.234Z,100.00
2022-09-14T12:03:17.904Z,99.51
2022-09-14T12:05:47.762Z,100.00
2022-09-14T12:08:38.433Z,99.13
2022-09-14T12:11:26.190Z,98.67
2022-09-14T12:14:15.924Z,98.55
2022-09-14T12:17:22.491Z,99.85
2022-09-14T12:19:55.975Z,98.16
2022-09-14T12:22:32.650Z,98.75
2022-09-14T12:25:03.646Z,93.89
2022-09-14T12:27:32.703Z,94.15
2022-09-14T12:30:00.508Z,97.02
2022-09-14T12:32:40.666Z,94.85
2022-09-14T12:35:37.634Z,93.21
2022-09-14T12:38:38.346Z,91.34
2022-09-14T12:41:51.221Z,93.42
2022-09-14T12:44:46.282Z,91.47
2022-09-14T12:47:50.945Z,93.09
2022-09-14T12:50:20.334Z,94.94
2022-09-14T12:52:59.909Z,93.53
2022-09-14T12:55:46.142Z,95.00
2022-09-14T12:58:27.118Z,96.16
2022-09-14T13:01:00.623Z,98.68
2022-09-14T13:03:46.054Z,95.73
2022-09-14T13:06:14.870Z,96.82
2022-09-14T13:08:46.298Z,94.78
2022-09-14T13:11:28.442Z,93.34
2022-09-14T13:13:59.241Z,95.01
2022-09-14T13:16:40.102Z,95.35
2022-09-14T13:19:20.607Z,95.75
2022-09-14T13:21:49.693Z,94.27
2022-09-14T13:24:32.649Z,96.17
2022-09-14T13:27:02.436Z,92.97
2022-09-14T13:29:33.088Z,95.59
2022-09-14T13:32:03.899Z,92.99
2022-09-14T13:34:34.552Z,93.52
2022-09-14T13:37:02.674Z,93.03
2022-09-14T13:39:31.693Z,91.37
2022-09-14T13:42:00.011Z,91.04
2022-09-14T13:44:34.044Z,92.10
2022-09-14T13:47:04.507Z,91.53
2022-09-14T13:49:32.275Z,91.21
2022-09-14T13:52:49.674Z,91.58
2022-09-14T13:55:23.198Z,88.98
2022-09-14T13:58:07.696Z,89.23
2022-09-14T14:00:48.508Z,88.35
2022-09-14T14:03:26.612Z,87.29
2022-09-14T14:05:54.376Z,87.51
2022-09-14T14:08:28.858Z,89.40
2022-09-14T14:10:56.726Z,86.88
2022-09-14T14:13:27.881Z,86.52
2022-09-14T14:16:15.686Z,87.49
2022-09-14T14:18:44.902Z,87.49
2022-09-14T14:21:16.506Z,88.42
2022-09-14T14:24:09.236Z,88.58
2022-09-14T14:26:32.231Z,90.30
2022-09-14T14:29:08.509Z,91.50
2022-09-14T14:31:37.757Z,88.90
2022-09-14T14:34:14.060Z,90.74
2022-09-14T14:36:41.848Z,89.89
2022-09-14T14:39:09.992Z,90.36
2022-09-14T14:41:38.743Z,90.60
2022-09-14T14:44:07.862Z,87.91
2022-09-14T14:46:36.868Z,90.95
2022-09-14T14:49:04.537Z,89.68
2022-09-14T14:51:32.340Z,90.06
2022-09-14T14:54:01.227Z,87.83
2022-09-14T14:56:29.610Z,91.22
2022-09-14T14:59:01.491Z,92.33
2022-09-14T15:01:30.968Z,92.39
2022-09-14T15:04:00.048Z,93.17
2022-09-14T15:06:28.403Z,92.24
2022-09-14T15:08:58.111Z,91.48
2022-09-14T15:11:25.796Z,92.84
2022-09-14T15:13:53.958Z,93.39
2022-09-14T15:16:21.723Z,91.54
2022-09-14T15:18:50.028Z,91.65
2022-09-14T15:21:19.552Z,92.95
2022-09-14T15:23:47.170Z,93.40
2022-09-14T15:26:17.038Z,92.73
2022-09-14T15:28:45.753Z,93.65
2022-09-14T15:31:14.235Z,93.68
2022-09-14T15:33:42.054Z,93.34
2022-09-14T15:36:09.832Z,92.58
2022-09-14T15:38:39.403Z,90.98
2022-09-14T15:41:07.069Z,91.52
2022-09-14T15:43:34.624Z,90.88
2022-09-14T15:46:03.627Z,90.86
2022-09-14T15:48:31.304Z,91.38
2022-09-14T15:51:00.632Z,91.15
2022-09-14T15:53:28.291Z,92.00
2022-09-14T15:55:59.704Z,89.89
2022-09-14T15:58:27.256Z,91.57
2022-09-14T16:00:55.126Z,89.25
2022-09-14T16:03:22.967Z,88.57
2022-09-14T16:05:51.317Z,88.71
2022-09-14T16:08:18.920Z,90.79
2022-09-14T16:10:46.447Z,91.40
2022-09-14T16:13:15.431Z,90.06
2022-09-14T16:15:42.986Z,92.14
2022-09-14T16:18:11.184Z,90.54
2022-09-14T16:20:38.729Z,92.26
2022-09-14T16:23:06.540Z,90.83
2022-09-14T16:25:40.528Z,92.55
2022-09-14T16:28:08.144Z,91.53
2022-09-14T16:30:37.027Z,91.88
2022-09-14T16:33:05.214Z,92.16
2022-09-14T16:35:32.928Z,93.04
2022-09-14T16:38:00.523Z,93.85
2022-09-14T16:40:28.779Z,93.37
2022-09-14T16:42:56.599Z,91.93
2022-09-14T16:45:24.977Z,92.45
2022-09-14T16:47:54.212Z,94.57
2022-09-14T16:50:21.746Z,96.40
2022-09-14T16:52:49.317Z,96.02
2022-09-14T16:55:16.858Z,95.33
2022-09-14T16:57:44.387Z,94.11
2022-09-14T17:00:12.946Z,95.44
2022-09-14T17:02:40.734Z,95.79
2022-09-14T17:05:10.478Z,97.77
2022-09-14T17:07:37.996Z,96.36
2022-09-14T17:10:06.615Z,98.60
2022-09-14T17:12:34.251Z,97.54
2022-09-14T17:15:01.894Z,97.29
2022-09-14T17:17:29.411Z,98.15
2022-09-14T17:19:56.994Z,99.27
2022-09-14T17:22:26.731Z,99.22
2022-09-14T17:24:54.455Z,98.37
2022-09-14T17:27:22.198Z,100.00
2022-09-14T17:29:50.826Z,100.00
2022-09-14T17:32:18.542Z,100.00
2022-09-14T17:34:46.794Z,100.00
2022-09-14T17:37:14.343Z,100.00
2022-09-14T17:39:43.524Z,100.00
2022-09-14T17:42:11.144Z,100.00
2022-09-14T17:44:40.847Z,100.00
2022-09-14T17:47:08.797Z,100.00
2022-09-14T17:49:36.477Z,100.00
2022-09-14T17:52:04.120Z,100.00
2022-09-14T17:54:32.202Z,100.00
2022-09-14T17:57:01.218Z,100.00
2022-09-14T17:59:28.996Z,100.00
2022-09-14T18:01:56.619Z,100.00
2022-09-14T18:04:24.530Z,100.00
2022-09-14T18:06:52.134Z,100.00
2022-09-14T18:09:21.568Z,100.00
2022-09-14T18:11:50.433Z,100.00
2022-09-14T18:14:19.678Z,100.00
2022-09-14T18:16:47.516Z,100.00
2022-09-14T18:19:15.842Z,100.00
2022-09-14T18:21:48.942Z,100.00
2022-09-14T18:24:19.639Z,100.00
2022-09-14T18:26:49.025Z,100.00
2022-09-14T18:29:23.016Z,100.00
2022-09-14T18:31:51.059Z,100.00
2022-09-14T18:34:18.990Z,100.00
2022-09-14T18:36:46.560Z,100.00
2022-09-14T18:39:14.401Z,100.00
2022-09-14T18:41:43.516Z,100.00
2022-09-14T18:44:11.169Z,100.00
2022-09-14T18:46:40.489Z,100.00
2022-09-14T18:49:08.114Z,100.00
2022-09-14T18:51:35.712Z,100.00
2022-09-14T18:54:06.763Z,100.00
2022-09-14T18:56:35.250Z,100.00
2022-09-14T18:59:03.989Z,100.00
2022-09-14T19:01:31.758Z,100.00
2022-09-14T19:04:02.567Z,100.00
2022-09-14T19:06:30.990Z,100.00
2022-09-14T19:08:58.507Z,100.00
2022-09-14T19:11:28.715Z,100.00
2022-09-14T19:13:57.515Z,100.00
2022-09-14T19:16:25.937Z,100.00
2022-09-14T19:18:54.002Z,100.00
2022-09-14T19:21:25.054Z,100.00
2022-09-14T19:24:03.137Z,100.00
2022-09-14T19:26:32.333Z,100.00
2022-09-14T19:29:00.834Z,100.00
2022-09-14T19:31:30.447Z,100.00
2022-09-14T19:33:58.486Z,100.00
2022-09-14T19:36:28.302Z,100.00
2022-09-14T19:38:57.213Z,100.00
2022-09-14T19:41:25.344Z,100.00
2022-09-14T19:43:52.971Z,100.00
2022-09-14T19:46:23.250Z,100.00
2022-09-14T19:48:51.350Z,100.00
2022-09-14T19:51:20.907Z,100.00
2022-09-14T19:53:51.554Z,100.00
2022-09-14T19:56:20.730Z,100.00
2022-09-14T19:58:50.325Z,100.00
2022-09-14T20:01:19.328Z,100.00
2022-09-14T20:03:48.717Z,100.00
2022-09-14T20:06:23.295Z,100.00
2022-09-14T20:08:54.849Z,100.00
2022-09-14T20:11:25.197Z,100.00
2022-09-14T20:13:55.154Z,100.00
2022-09-14T20:16:25.475Z,100.00
2022-09-14T20:18:53.385Z,100.00
2022-09-14T20:21:22.803Z,100.00
2022-09-14T20:24:16.292Z,100.00
2022-09-14T20:26:44.635Z,100.00
2022-09-14T20:29:15.688Z,100.00
2022-09-14T20:31:43.508Z,100.00
2022-09-14T20:34:11.280Z,100.00
2022-09-14T20:36:39.028Z,100.00
2022-09-14T20:39:07.965Z,100.00
2022-09-14T20:41:36.579Z,100.00
2022-09-14T20:44:04.720Z,100.00
2022-09-14T20:46:35.206Z,100.00
2022-09-14T20:49:04.070Z,100.00
2022-09-14T20:51:31.741Z,100.00
2022-09-14T20:53:59.474Z,100.00
2022-09-14T20:56:30.933Z,100.00
2022-09-14T20:59:00.091Z,100.00
2022-09-14T21:01:29.177Z,100.00
2022-09-14T21:03:57.160Z,100.00
2022-09-14T21:06:27.444Z,100.00
2022-09-14T21:08:55.583Z,100.00
2022-09-14T21:11:26.419Z,100.00
2022-09-14T21:13:56.599Z,100.00
2022-09-14T21:16:27.576Z,100.00
2022-09-14T21:18:57.532Z,100.00
2022-09-14T21:21:27.463Z,100.00
2022-09-14T21:23:55.780Z,100.00
2022-09-14T21:26:24.947Z,100.00
2022-09-14T21:28:57.370Z,100.00
2022-09-14T21:31:26.429Z,100.00
2022-09-14T21:33:55.549Z,100.00
2022-09-14T21:36:25.164Z,100.00
2022-09-14T21:38:53.918Z,100.00
2022-09-14T21:41:22.625Z,100.00
2022-09-14T21:43:50.662Z,100.00
2022-09-14T21:46:20.915Z,100.00
2022-09-14T21:48:48.501Z,100.00
2022-09-14T21:51:18.479Z,100.00
2022-09-14T21:53:47.132Z,100.00
2022-09-14T21:56:15.335Z,100.00
2022-09-14T21:58:43.004Z,100.00
2022-09-14T22:01:11.928Z,100.00
2022-09-14T22:03:41.062Z,100.00
2022-09-14T22:06:12.982Z,100.00
2022-09-14T22:08:41.943Z,100.00
2022-09-14T22:11:11.656Z,100.00
2022-09-14T22:13:40.511Z,100.00
2022-09-14T22:16:09.134Z,100.00
2022-09-14T22:18:37.650Z,100.00
2022-09-14T22:21:08.107Z,100.00
2022-09-14T22:23:36.584Z,100.00
2022-09-14T22:26:09.095Z,100.00
2022-09-14T22:28:37.029Z,100.00
2022-09-14T22:31:04.875Z,100.00
2022-09-14T22:33:33.966Z,100.00
2022-09-14T22:36:03.027Z,100.00
2022-09-14T22:38:34.006Z,100.00
2022-09-14T22:41:03.113Z,100.00
2022-09-14T22:43:31.565Z,100.00
2022-09-14T22:45:59.527Z,100.00
2022-09-14T22:48:27.510Z,100.00
2022-09-14T22:50:56.546Z,100.00
2022-09-14T22:53:25.685Z,100.00
2022-09-14T22:55:54.852Z,100.00
2022-09-14T22:58:24.057Z,100.00
2022-09-14T23:00:51.918Z,100.00
2022-09-14T23:03:20.158Z,100.00
2022-09-14T23:05:52.185Z,100.00
2022-09-14T23:08:21.727Z,100.00
2022-09-14T23:10:49.937Z,100.00
2022-09-14T23:13:19.126Z,100.00
2022-09-14T23:15:47.152Z,100.00
2022-09-14T23:18:15.388Z,100.00
2022-09-14T23:20:44.196Z,100.00
2022-09-14T23:23:12.441Z,100.00
2022-09-14T23:25:41.149Z,100.00
2022-09-14T23:28:11.125Z,100.00
2022-09-14T23:30:40.232Z,100.00
2022-09-14T23:33:08.129Z,100.00
2022-09-14T23:35:37.740Z,100.00
2022-09-14T23:38:05.693Z,100.00
2022-09-14T23:40:33.226Z,100.00
2022-09-14T23:43:00.896Z,100.00
2022-09-14T23:45:29.407Z,100.00
2022-09-14T23:47:58.358Z,100.00
2022-09-14T23:50:25.986Z,100.00
2022-09-14T23:52:57.323Z,100.00
2022-09-14T23:55:24.990Z,100.00
2022-09-14T23:57:52.545Z,100.00
